Time;durP1;ratioP1;P1;durP2;ratioP2;P2;SDS_P1;SDS_P2;PMS_P1;PMS_P2;Temp;Humidity;BMP_temperature;BMP_pressure;BME280_temperature;BME280_humidity;BME280_pressure;Samples;Min_cycle;Max_cycle;Signal;HPM_P1;HPM_P2
2021/09/24 00:00:24;;;;;;;10.20;5.90;;;;;;;;;;4992089;28;20045;-58
2021/09/24 00:02:49;;;;;;;10.65;5.68;;;;;;;;;;4983585;28;20353;-58
2021/09/24 00:05:15;;;;;;;10.10;5.88;;;;;;;;;;5005287;28;20023;-58
2021/09/24 00:07:40;;;;;;;10.10;5.60;;;;;;;;;;4991142;28;20025;-59
2021/09/24 00:10:09;;;;;;;9.95;5.38;;;;;;;;;;4998477;28;20022;-59
2021/09/24 00:12:35;;;;;;;9.93;5.82;;;;;;;;;;5006325;28;20143;-58
2021/09/24 00:15:00;;;;;;;10.60;5.72;;;;;;;;;;5000791;28;20537;-59
2021/09/24 00:17:26;;;;;;;9.32;5.80;;;;;;;;;;4989522;28;20046;-59
2021/09/24 00:19:52;;;;;;;12.02;6.00;;;;;;;;;;4994293;28;20031;-59
2021/09/24 00:22:17;;;;;;;10.30;5.90;;;;;;;;;;4978922;28;20075;-58
2021/09/24 00:24:43;;;;;;;9.25;5.90;;;;;;;;;;4991685;28;20084;-59
2021/09/24 00:27:08;;;;;;;10.63;6.55;;;;;;;;;;4991108;28;20477;-59
2021/09/24 00:29:34;;;;;;;8.18;5.93;;;;;;;;;;5014609;28;20042;-59
2021/09/24 00:31:59;;;;;;;10.50;6.38;;;;;;;;;;4991347;28;20028;-59
2021/09/24 00:34:24;;;;;;;12.05;6.10;;;;;;;;;;4993777;28;20505;-59
2021/09/24 00:36:50;;;;;;;10.25;5.90;;;;;;;;;;4978397;28;20034;-58
2021/09/24 00:39:15;;;;;;;12.43;6.07;;;;;;;;;;4991032;28;20026;-58
2021/09/24 00:41:41;;;;;;;9.88;6.05;;;;;;;;;;4983622;28;20034;-58
2021/09/24 00:44:06;;;;;;;10.32;6.22;;;;;;;;;;4998042;28;20050;-58
2021/09/24 00:46:32;;;;;;;10.15;6.18;;;;;;;;;;4982951;28;20069;-58
2021/09/24 00:48:57;;;;;;;10.48;6.32;;;;;;;;;;5008424;28;20036;-58
2021/09/24 00:51:23;;;;;;;12.93;6.15;;;;;;;;;;4983949;28;20038;-59
2021/09/24 00:53:48;;;;;;;10.18;6.00;;;;;;;;;;4985677;28;20121;-59
2021/09/24 00:56:14;;;;;;;9.43;5.72;;;;;;;;;;5011507;28;20398;-60
2021/09/24 00:58:39;;;;;;;10.80;6.15;;;;;;;;;;5001553;28;20585;-60
2021/09/24 01:01:04;;;;;;;10.35;5.85;;;;;;;;;;4984409;28;20416;-60
2021/09/24 01:03:30;;;;;;;11.18;6.28;;;;;;;;;;5004623;28;20106;-59
2021/09/24 01:05:56;;;;;;;10.00;6.15;;;;;;;;;;5015293;28;20035;-60
2021/09/24 01:08:21;;;;;;;11.82;6.45;;;;;;;;;;4988329;28;20507;-60
2021/09/24 01:10:48;;;;;;;8.85;5.60;;;;;;;;;;4992807;28;20152;-60
2021/09/24 01:13:13;;;;;;;12.32;6.38;;;;;;;;;;4988580;28;20441;-60
2021/09/24 01:15:39;;;;;;;10.23;5.93;;;;;;;;;;5000837;28;20027;-60
2021/09/24 01:18:04;;;;;;;10.48;6.45;;;;;;;;;;4993833;28;20061;-59
2021/09/24 01:20:30;;;;;;;11.10;6.28;;;;;;;;;;4986133;28;20458;-59
2021/09/24 01:22:56;;;;;;;10.50;6.13;;;;;;;;;;5004931;28;20029;-60
2021/09/24 01:25:23;;;;;;;12.32;6.18;;;;;;;;;;5010259;28;20028;-59
2021/09/24 01:27:50;;;;;;;11.98;5.82;;;;;;;;;;5027372;28;20394;-59
2021/09/24 01:30:16;;;;;;;11.20;5.97;;;;;;;;;;5049809;28;20027;-60
2021/09/24 01:32:43;;;;;;;10.95;6.57;;;;;;;;;;5001352;28;20306;-59
2021/09/24 01:35:10;;;;;;;12.00;6.50;;;;;;;;;;5020861;28;20106;-59
2021/09/24 01:37:35;;;;;;;10.90;6.65;;;;;;;;;;5052976;28;20084;-59
2021/09/24 01:40:01;;;;;;;10.40;6.20;;;;;;;;;;4990894;28;20038;-60
2021/09/24 01:42:27;;;;;;;9.68;6.20;;;;;;;;;;4992033;28;20092;-60
2021/09/24 01:44:53;;;;;;;10.57;5.90;;;;;;;;;;4994854;28;20468;-60
2021/09/24 01:47:18;;;;;;;9.05;5.70;;;;;;;;;;4994537;28;20022;-59
2021/09/24 01:49:44;;;;;;;9.38;6.63;;;;;;;;;;4984999;28;20423;-60
2021/09/24 01:52:10;;;;;;;9.73;6.03;;;;;;;;;;4997712;28;20095;-59
2021/09/24 01:54:36;;;;;;;11.63;6.15;;;;;;;;;;4983416;28;20457;-60
2021/09/24 01:57:01;;;;;;;11.23;6.07;;;;;;;;;;5004251;28;20031;-58
2021/09/24 01:59:27;;;;;;;12.27;6.03;;;;;;;;;;4990786;28;20042;-59
2021/09/24 02:01:52;;;;;;;8.65;5.55;;;;;;;;;;4989773;28;20045;-59
2021/09/24 02:04:18;;;;;;;12.55;5.75;;;;;;;;;;4973295;28;20034;-59
2021/09/24 02:06:44;;;;;;;9.82;5.88;;;;;;;;;;4986513;28;20622;-58
2021/09/24 02:09:10;;;;;;;11.10;5.65;;;;;;;;;;5006167;28;20033;-58
2021/09/24 02:11:36;;;;;;;9.13;5.93;;;;;;;;;;5000913;28;20103;-58
2021/09/24 02:14:02;;;;;;;12.40;6.53;;;;;;;;;;4983961;28;20495;-58
2021/09/24 02:16:28;;;;;;;10.13;6.20;;;;;;;;;;4998100;28;20121;-58
2021/09/24 02:18:54;;;;;;;10.60;6.35;;;;;;;;;;5052791;28;20584;-59
2021/09/24 02:21:19;;;;;;;10.95;6.28;;;;;;;;;;4989780;28;20050;-59
2021/09/24 02:23:45;;;;;;;11.57;6.18;;;;;;;;;;4995752;28;20023;-60
2021/09/24 02:26:10;;;;;;;15.35;6.97;;;;;;;;;;4985874;28;20482;-58
2021/09/24 02:28:36;;;;;;;12.93;6.63;;;;;;;;;;5051096;28;20031;-58
2021/09/24 02:31:01;;;;;;;11.80;6.40;;;;;;;;;;5055787;28;20553;-58
2021/09/24 02:33:27;;;;;;;10.43;6.10;;;;;;;;;;5053111;28;20043;-59
2021/09/24 02:35:53;;;;;;;11.73;6.55;;;;;;;;;;5054272;28;20039;-59
2021/09/24 02:38:19;;;;;;;12.00;6.18;;;;;;;;;;4990459;28;20039;-59
2021/09/24 02:40:44;;;;;;;9.25;5.65;;;;;;;;;;5014393;28;20033;-59
2021/09/24 02:43:10;;;;;;;10.77;7.13;;;;;;;;;;4996288;28;20373;-59
2021/09/24 02:45:35;;;;;;;11.25;6.80;;;;;;;;;;4983607;28;20030;-59
2021/09/24 02:48:00;;;;;;;12.98;6.57;;;;;;;;;;4990624;28;20038;-59
2021/09/24 02:50:26;;;;;;;11.90;6.43;;;;;;;;;;5008701;28;20073;-59
2021/09/24 02:52:51;;;;;;;12.65;6.78;;;;;;;;;;5003836;28;20583;-59
2021/09/24 02:55:19;;;;;;;10.38;5.97;;;;;;;;;;5049416;28;20036;-59
2021/09/24 02:57:46;;;;;;;11.95;7.10;;;;;;;;;;5016487;28;20105;-60
2021/09/24 03:00:12;;;;;;;13.27;7.30;;;;;;;;;;5003069;28;20084;-59
2021/09/24 03:02:38;;;;;;;15.93;7.68;;;;;;;;;;4986202;28;20823;-58
2021/09/24 03:05:05;;;;;;;14.38;7.82;;;;;;;;;;5012171;28;20068;-59
2021/09/24 03:07:30;;;;;;;12.63;7.43;;;;;;;;;;5046200;28;20484;-59
2021/09/24 03:09:55;;;;;;;12.57;6.88;;;;;;;;;;4999632;28;20042;-59
2021/09/24 03:12:21;;;;;;;11.82;7.15;;;;;;;;;;4987047;28;20038;-59
2021/09/24 03:14:46;;;;;;;11.93;7.15;;;;;;;;;;4995058;28;20034;-58
2021/09/24 03:17:12;;;;;;;11.90;7.05;;;;;;;;;;5000516;28;20034;-60
2021/09/24 03:19:37;;;;;;;15.13;7.22;;;;;;;;;;5057297;28;20032;-59
2021/09/24 03:22:03;;;;;;;11.85;7.20;;;;;;;;;;4985329;28;20018;-58
2021/09/24 03:24:28;;;;;;;14.35;6.88;;;;;;;;;;5045148;28;20042;-58
2021/09/24 03:26:54;;;;;;;14.15;6.50;;;;;;;;;;4985622;28;20389;-58
2021/09/24 03:29:19;;;;;;;10.55;6.10;;;;;;;;;;4998143;28;20023;-58
2021/09/24 03:31:45;;;;;;;12.50;7.10;;;;;;;;;;5050161;28;20034;-59
2021/09/24 03:34:10;;;;;;;13.80;6.82;;;;;;;;;;4990656;28;20402;-58
2021/09/24 03:36:36;;;;;;;14.43;6.80;;;;;;;;;;5016606;28;20043;-58
2021/09/24 03:39:05;;;;;;;12.93;7.32;;;;;;;;;;5009116;28;20026;-58
2021/09/24 03:41:30;;;;;;;12.07;7.47;;;;;;;;;;4986881;28;20044;-58
2021/09/24 03:43:56;;;;;;;14.35;6.60;;;;;;;;;;4998696;28;20023;-58
2021/09/24 03:46:21;;;;;;;11.18;6.80;;;;;;;;;;4998453;28;20024;-58
2021/09/24 03:48:46;;;;;;;14.73;7.75;;;;;;;;;;5001217;28;20041;-59
2021/09/24 03:51:12;;;;;;;14.38;6.75;;;;;;;;;;5046535;28;20088;-58
2021/09/24 03:53:37;;;;;;;13.73;6.57;;;;;;;;;;4997512;28;20126;-58
2021/09/24 03:56:03;;;;;;;11.75;6.85;;;;;;;;;;4988951;28;20031;-58
2021/09/24 03:58:29;;;;;;;11.65;7.15;;;;;;;;;;4991564;28;20053;-58
2021/09/24 04:00:55;;;;;;;12.75;6.78;;;;;;;;;;5002601;28;20022;-58
2021/09/24 04:03:21;;;;;;;11.60;6.90;;;;;;;;;;5046486;28;20370;-58
2021/09/24 04:05:46;;;;;;;14.60;7.82;;;;;;;;;;5045855;28;20302;-58
2021/09/24 04:08:13;;;;;;;12.75;7.18;;;;;;;;;;4984945;28;20030;-59
2021/09/24 04:10:39;;;;;;;14.20;8.10;;;;;;;;;;5008448;28;20390;-58
2021/09/24 04:13:05;;;;;;;18.95;8.73;;;;;;;;;;4984125;28;20026;-58
2021/09/24 04:15:30;;;;;;;19.35;9.75;;;;;;;;;;5002594;28;20552;-59
2021/09/24 04:17:56;;;;;;;13.13;7.72;;;;;;;;;;5003630;28;20033;-58
2021/09/24 04:20:21;;;;;;;14.90;6.55;;;;;;;;;;4996447;28;20022;-59
2021/09/24 04:22:47;;;;;;;11.15;6.85;;;;;;;;;;5001382;28;20262;-59
2021/09/24 04:25:12;;;;;;;11.68;6.82;;;;;;;;;;5047942;28;20523;-59
2021/09/24 04:27:37;;;;;;;15.32;8.68;;;;;;;;;;4990743;28;20076;-59
2021/09/24 04:30:04;;;;;;;14.82;7.65;;;;;;;;;;4984611;28;20504;-59
2021/09/24 04:32:30;;;;;;;16.88;7.18;;;;;;;;;;5004598;28;20031;-59
2021/09/24 04:34:56;;;;;;;13.75;7.43;;;;;;;;;;4990841;28;20035;-59
2021/09/24 04:37:21;;;;;;;12.75;7.07;;;;;;;;;;4988158;28;20035;-59
2021/09/24 04:39:46;;;;;;;17.23;9.05;;;;;;;;;;4985995;28;20030;-58
2021/09/24 04:42:12;;;;;;;14.05;7.85;;;;;;;;;;4990263;28;20026;-58
2021/09/24 04:44:38;;;;;;;20.67;9.35;;;;;;;;;;5017801;28;20031;-58
2021/09/24 04:47:04;;;;;;;14.52;7.43;;;;;;;;;;4987095;28;20034;-59
2021/09/24 04:49:29;;;;;;;13.50;7.50;;;;;;;;;;4990094;28;20036;-59
2021/09/24 04:51:55;;;;;;;13.18;7.07;;;;;;;;;;5049153;28;20052;-58
2021/09/24 04:54:20;;;;;;;12.43;6.68;;;;;;;;;;4992231;28;20038;-59
2021/09/24 04:56:46;;;;;;;13.13;6.43;;;;;;;;;;5049347;28;20033;-59
2021/09/24 04:59:11;;;;;;;15.27;6.93;;;;;;;;;;4992362;28;20031;-59
2021/09/24 05:01:37;;;;;;;14.05;6.90;;;;;;;;;;4986001;28;20915;-59
2021/09/24 05:04:02;;;;;;;12.05;7.03;;;;;;;;;;4981476;28;20031;-59
2021/09/24 05:06:28;;;;;;;12.40;6.85;;;;;;;;;;5051658;28;20027;-60
2021/09/24 05:08:53;;;;;;;15.05;7.18;;;;;;;;;;4988428;28;20027;-59
2021/09/24 05:11:19;;;;;;;15.93;7.38;;;;;;;;;;5002625;28;20024;-59
2021/09/24 05:13:44;;;;;;;13.32;6.72;;;;;;;;;;4985456;28;20052;-60
2021/09/24 05:16:11;;;;;;;11.88;6.50;;;;;;;;;;4985524;28;20224;-60
2021/09/24 05:18:38;;;;;;;13.75;7.43;;;;;;;;;;4987097;28;20516;-59
2021/09/24 05:21:04;;;;;;;15.02;7.78;;;;;;;;;;4978716;28;20030;-58
2021/09/24 05:23:29;;;;;;;11.93;7.15;;;;;;;;;;4998663;28;20058;-59
2021/09/24 05:25:55;;;;;;;13.00;6.93;;;;;;;;;;4987597;28;20031;-59
2021/09/24 05:28:20;;;;;;;15.57;7.03;;;;;;;;;;4980265;28;20518;-58
2021/09/24 05:30:46;;;;;;;14.68;6.63;;;;;;;;;;4986476;28;20117;-58
2021/09/24 05:33:11;;;;;;;12.77;7.03;;;;;;;;;;4993027;28;20054;-58
2021/09/24 05:35:36;;;;;;;16.33;7.32;;;;;;;;;;4976696;28;20548;-59
2021/09/24 05:38:02;;;;;;;15.77;7.82;;;;;;;;;;4995547;28;20027;-59
2021/09/24 05:40:27;;;;;;;41.20;8.43;;;;;;;;;;5022059;28;20146;-59
2021/09/24 05:42:53;;;;;;;21.48;8.00;;;;;;;;;;4984544;28;20026;-59
2021/09/24 05:45:20;;;;;;;13.32;7.07;;;;;;;;;;4986234;28;20435;-59
2021/09/24 05:47:46;;;;;;;17.80;7.85;;;;;;;;;;5001991;28;20548;-59
2021/09/24 05:50:12;;;;;;;15.32;7.50;;;;;;;;;;5000575;28;20132;-58
2021/09/24 05:52:50;;;;;;;14.15;7.28;;;;;;;;;;5004091;28;20026;-58
2021/09/24 05:55:17;;;;;;;11.65;7.20;;;;;;;;;;5047445;28;20084;-59
2021/09/24 05:57:44;;;;;;;12.15;6.95;;;;;;;;;;4989126;28;20101;-58
2021/09/24 06:00:11;;;;;;;13.52;7.05;;;;;;;;;;4999245;28;20064;-58
2021/09/24 06:02:37;;;;;;;14.82;7.40;;;;;;;;;;4984431;28;20026;-58
2021/09/24 06:05:03;;;;;;;14.25;7.50;;;;;;;;;;4978029;28;20046;-59
2021/09/24 06:07:29;;;;;;;16.25;7.93;;;;;;;;;;5048033;28;20500;-59
2021/09/24 06:09:54;;;;;;;16.25;8.10;;;;;;;;;;4996464;28;20566;-59
2021/09/24 06:12:20;;;;;;;14.73;7.38;;;;;;;;;;4985848;28;20641;-59
2021/09/24 06:14:45;;;;;;;14.65;7.43;;;;;;;;;;5004427;28;20056;-59
2021/09/24 06:17:11;;;;;;;13.30;7.55;;;;;;;;;;5054487;28;20061;-59
2021/09/24 06:19:38;;;;;;;13.00;7.50;;;;;;;;;;4999339;28;20032;-59
2021/09/24 06:22:04;;;;;;;15.93;7.85;;;;;;;;;;4987132;28;20080;-59
2021/09/24 06:24:30;;;;;;;14.20;8.35;;;;;;;;;;5047571;28;20133;-59
2021/09/24 06:26:56;;;;;;;12.60;7.30;;;;;;;;;;4988763;28;20102;-60
2021/09/24 06:29:21;;;;;;;15.43;7.50;;;;;;;;;;4996058;28;20152;-59
2021/09/24 06:31:46;;;;;;;15.13;7.78;;;;;;;;;;4981426;28;20510;-59
2021/09/24 06:34:12;;;;;;;11.57;7.13;;;;;;;;;;4980611;28;20477;-59
2021/09/24 06:36:37;;;;;;;14.13;7.45;;;;;;;;;;4991260;28;20037;-59
2021/09/24 06:39:03;;;;;;;13.05;7.68;;;;;;;;;;4980920;28;20580;-59
2021/09/24 06:41:29;;;;;;;11.50;6.93;;;;;;;;;;4986573;28;20106;-59
2021/09/24 06:43:55;;;;;;;12.75;7.53;;;;;;;;;;4980706;28;20542;-59
2021/09/24 06:46:20;;;;;;;14.23;8.40;;;;;;;;;;4992505;28;20097;-59
2021/09/24 06:48:45;;;;;;;14.60;7.90;;;;;;;;;;4987558;28;20034;-59
2021/09/24 06:51:11;;;;;;;13.48;7.63;;;;;;;;;;4984489;28;20100;-59
2021/09/24 06:53:36;;;;;;;16.60;8.48;;;;;;;;;;4992967;28;20049;-58
2021/09/24 06:56:03;;;;;;;14.38;8.25;;;;;;;;;;4991123;28;20018;-58
2021/09/24 06:58:28;;;;;;;17.65;8.15;;;;;;;;;;5047408;28;20033;-59
2021/09/24 07:00:53;;;;;;;15.10;7.50;;;;;;;;;;4989144;28;20035;-59
2021/09/24 07:03:19;;;;;;;14.38;8.10;;;;;;;;;;4988620;28;20649;-59
2021/09/24 07:05:44;;;;;;;14.50;7.82;;;;;;;;;;4990959;28;20022;-59
2021/09/24 07:08:10;;;;;;;12.35;7.80;;;;;;;;;;5001642;28;20030;-59
2021/09/24 07:10:35;;;;;;;12.55;8.02;;;;;;;;;;5049391;28;20142;-59
2021/09/24 07:13:01;;;;;;;13.90;7.88;;;;;;;;;;4991866;28;20036;-59
2021/09/24 07:15:26;;;;;;;13.70;7.70;;;;;;;;;;5002507;28;20408;-59
2021/09/24 07:17:51;;;;;;;12.40;7.32;;;;;;;;;;4981298;28;20386;-59
2021/09/24 07:20:17;;;;;;;13.15;7.28;;;;;;;;;;4993913;28;20077;-59
2021/09/24 07:22:42;;;;;;;12.45;7.28;;;;;;;;;;4987070;28;20485;-59
2021/09/24 07:25:08;;;;;;;13.93;8.25;;;;;;;;;;4983228;28;20037;-59
2021/09/24 07:27:34;;;;;;;14.43;8.18;;;;;;;;;;4992028;28;20099;-59
2021/09/24 07:29:59;;;;;;;13.10;7.32;;;;;;;;;;4998307;28;20030;-59
2021/09/24 07:32:25;;;;;;;13.40;7.85;;;;;;;;;;5040869;28;20053;-59
2021/09/24 07:34:51;;;;;;;14.80;8.00;;;;;;;;;;4977332;28;20022;-59
2021/09/24 07:37:16;;;;;;;13.32;8.23;;;;;;;;;;5006575;28;20400;-59
2021/09/24 07:39:41;;;;;;;12.30;7.82;;;;;;;;;;5005489;28;20429;-59
2021/09/24 07:42:07;;;;;;;14.07;8.20;;;;;;;;;;4985125;28;20077;-59
2021/09/24 07:44:33;;;;;;;12.63;7.93;;;;;;;;;;4985247;28;20034;-59
2021/09/24 07:46:59;;;;;;;15.93;8.93;;;;;;;;;;4993703;28;20030;-58
2021/09/24 07:49:25;;;;;;;13.82;8.32;;;;;;;;;;4996430;28;20864;-59
2021/09/24 07:51:53;;;;;;;13.90;8.27;;;;;;;;;;4979339;28;20034;-59
2021/09/24 07:54:21;;;;;;;14.80;8.43;;;;;;;;;;4995643;28;20106;-60
2021/09/24 07:56:50;;;;;;;13.55;8.20;;;;;;;;;;5045847;28;20039;-60
2021/09/24 07:59:16;;;;;;;13.23;7.72;;;;;;;;;;4992620;28;20564;-60
2021/09/24 08:01:42;;;;;;;15.20;9.48;;;;;;;;;;5060246;28;20135;-60
2021/09/24 08:04:08;;;;;;;13.63;8.50;;;;;;;;;;4981191;28;20435;-58
2021/09/24 08:06:33;;;;;;;13.40;8.48;;;;;;;;;;5054702;28;20061;-58
2021/09/24 08:08:59;;;;;;;15.82;8.63;;;;;;;;;;4987284;28;20030;-58
2021/09/24 08:11:24;;;;;;;12.85;8.45;;;;;;;;;;5044705;28;20057;-59
2021/09/24 08:13:49;;;;;;;16.30;8.43;;;;;;;;;;5046462;28;20388;-59
2021/09/24 08:16:15;;;;;;;13.00;8.63;;;;;;;;;;5009439;28;20516;-59
2021/09/24 08:18:41;;;;;;;14.35;9.07;;;;;;;;;;4990457;28;20030;-59
2021/09/24 08:21:06;;;;;;;16.02;8.88;;;;;;;;;;4985628;28;20033;-59
2021/09/24 08:23:32;;;;;;;15.52;8.82;;;;;;;;;;4989409;28;20034;-59
2021/09/24 08:25:58;;;;;;;14.43;8.70;;;;;;;;;;4987730;28;20034;-60
2021/09/24 08:28:23;;;;;;;12.88;8.57;;;;;;;;;;5043531;28;20046;-60
2021/09/24 08:30:48;;;;;;;14.05;8.68;;;;;;;;;;4988632;28;20109;-59
2021/09/24 08:33:14;;;;;;;14.27;8.65;;;;;;;;;;4996808;28;20407;-59
2021/09/24 08:35:41;;;;;;;12.60;8.50;;;;;;;;;;4997104;28;20028;-60
2021/09/24 08:38:07;;;;;;;12.30;7.57;;;;;;;;;;4982896;28;20041;-60
2021/09/24 08:40:33;;;;;;;15.07;8.13;;;;;;;;;;5041592;28;20031;-60
2021/09/24 08:43:00;;;;;;;13.48;8.43;;;;;;;;;;4991210;28;20057;-60
2021/09/24 08:45:27;;;;;;;15.30;8.43;;;;;;;;;;4986648;28;20038;-60
2021/09/24 08:47:54;;;;;;;15.40;9.18;;;;;;;;;;4989645;28;20022;-59
2021/09/24 08:50:20;;;;;;;13.00;8.32;;;;;;;;;;4985978;28;20033;-59
2021/09/24 08:52:45;;;;;;;15.05;8.65;;;;;;;;;;4980675;28;20034;-60
2021/09/24 08:55:12;;;;;;;17.83;9.63;;;;;;;;;;4994538;28;20113;-60
2021/09/24 08:57:39;;;;;;;15.70;8.95;;;;;;;;;;5047053;28;20035;-60
2021/09/24 09:00:07;;;;;;;19.35;8.95;;;;;;;;;;5004359;28;20030;-60
2021/09/24 09:02:52;;;;;;;17.85;9.23;;;;;;;;;;4996862;28;20088;-60
2021/09/24 09:05:19;;;;;;;18.52;9.60;;;;;;;;;;4985403;28;20511;-59
2021/09/24 09:07:45;;;;;;;15.82;10.07;;;;;;;;;;4995147;28;20034;-58
2021/09/24 09:10:11;;;;;;;16.20;9.20;;;;;;;;;;4983719;28;20798;-59
2021/09/24 09:12:37;;;;;;;14.45;9.43;;;;;;;;;;4983991;28;20037;-59
2021/09/24 09:15:08;;;;;;;16.77;10.00;;;;;;;;;;4986237;28;20385;-59
2021/09/24 09:17:37;;;;;;;13.48;8.07;;;;;;;;;;4987716;28;20026;-59
2021/09/24 09:20:11;;;;;;;18.10;10.40;;;;;;;;;;4980633;28;20039;-60
2021/09/24 09:22:36;;;;;;;16.08;8.82;;;;;;;;;;4984167;28;20041;-60
2021/09/24 09:25:03;;;;;;;13.85;8.18;;;;;;;;;;4997552;28;20034;-59
2021/09/24 09:27:28;;;;;;;13.02;7.70;;;;;;;;;;4988340;28;20167;-58
2021/09/24 09:30:11;;;;;;;11.90;8.52;;;;;;;;;;4984001;28;20113;-58
2021/09/24 09:32:37;;;;;;;11.48;8.02;;;;;;;;;;4994135;28;20043;-61
2021/09/24 09:35:02;;;;;;;12.60;8.25;;;;;;;;;;4983522;28;20023;-60
2021/09/24 09:37:28;;;;;;;11.32;7.50;;;;;;;;;;4986270;28;20041;-60
2021/09/24 09:40:05;;;;;;;13.98;7.43;;;;;;;;;;4979854;28;20098;-60
2021/09/24 09:42:40;;;;;;;11.48;7.35;;;;;;;;;;5043797;28;20053;-60
2021/09/24 09:45:08;;;;;;;10.88;7.32;;;;;;;;;;4985431;28;20122;-60
2021/09/24 09:47:36;;;;;;;11.35;7.05;;;;;;;;;;4981720;28;20034;-60
2021/09/24 09:50:09;;;;;;;13.68;7.50;;;;;;;;;;4995689;28;20489;-60
2021/09/24 09:52:52;;;;;;;10.32;6.88;;;;;;;;;;4976737;28;20030;-60
2021/09/24 09:55:20;;;;;;;10.35;7.10;;;;;;;;;;4997451;28;20064;-60
2021/09/24 09:57:50;;;;;;;9.90;6.72;;;;;;;;;;4992564;28;20403;-61
2021/09/24 10:00:15;;;;;;;10.68;7.07;;;;;;;;;;4984900;28;20034;-60
2021/09/24 10:02:41;;;;;;;14.30;7.25;;;;;;;;;;4988395;28;20523;-60
2021/09/24 10:05:07;;;;;;;10.07;7.05;;;;;;;;;;4983159;28;20034;-60
2021/09/24 10:07:37;;;;;;;11.60;7.53;;;;;;;;;;5044539;28;20034;-60
2021/09/24 10:10:12;;;;;;;11.50;7.63;;;;;;;;;;4993936;28;20034;-60
2021/09/24 10:12:39;;;;;;;11.23;7.97;;;;;;;;;;4985405;28;20692;-60
2021/09/24 10:15:07;;;;;;;8.65;6.65;;;;;;;;;;4993330;28;20073;-60
2021/09/24 10:17:33;;;;;;;12.15;7.30;;;;;;;;;;4991498;28;20030;-59
2021/09/24 10:19:58;;;;;;;9.90;7.10;;;;;;;;;;4980120;28;20038;-60
2021/09/24 10:22:25;;;;;;;12.70;6.97;;;;;;;;;;4987679;28;20750;-59
2021/09/24 10:24:52;;;;;;;10.30;7.40;;;;;;;;;;4983398;28;20048;-60
2021/09/24 10:27:27;;;;;;;9.65;6.85;;;;;;;;;;4995139;28;20024;-59
2021/09/24 10:29:56;;;;;;;10.43;6.85;;;;;;;;;;4990503;28;20104;-59
2021/09/24 10:32:24;;;;;;;11.73;7.22;;;;;;;;;;4992699;28;20061;-59
2021/09/24 10:34:59;;;;;;;11.88;7.70;;;;;;;;;;5058974;28;20391;-59
2021/09/24 10:37:27;;;;;;;16.30;8.30;;;;;;;;;;4999668;28;20105;-60
2021/09/24 10:39:59;;;;;;;9.07;6.93;;;;;;;;;;4999544;28;20022;-59
2021/09/24 10:42:34;;;;;;;16.73;8.52;;;;;;;;;;4991133;28;20040;-60
2021/09/24 10:45:35;;;;;;;16.48;8.88;;;;;;;;;;5005408;28;23614;-59
2021/09/24 10:48:04;;;;;;;10.90;7.18;;;;;;;;;;5007973;28;20046;-59
2021/09/24 10:50:32;;;;;;;13.70;8.30;;;;;;;;;;4993867;28;20042;-60
2021/09/24 10:53:10;;;;;;;11.43;7.72;;;;;;;;;;5003243;28;20034;-59
2021/09/24 10:55:54;;;;;;;10.25;6.85;;;;;;;;;;4992288;28;20500;-59
2021/09/24 10:58:28;;;;;;;9.68;7.30;;;;;;;;;;4994826;28;20042;-60
2021/09/24 11:01:11;;;;;;;13.50;7.82;;;;;;;;;;4993752;28;20102;-59
2021/09/24 11:03:57;;;;;;;9.70;7.00;;;;;;;;;;5002098;28;20489;-59
2021/09/24 11:06:38;;;;;;;9.07;6.30;;;;;;;;;;5038853;28;20493;-59
2021/09/24 11:09:05;;;;;;;8.60;7.22;;;;;;;;;;4985324;28;20376;-59
2021/09/24 11:11:33;;;;;;;11.15;7.32;;;;;;;;;;4990384;28;20571;-59
2021/09/24 11:14:06;;;;;;;11.00;6.70;;;;;;;;;;4986186;28;20111;-59
2021/09/24 11:16:44;;;;;;;11.18;7.28;;;;;;;;;;4984256;28;20034;-59
2021/09/24 11:19:33;;;;;;;9.82;6.15;;;;;;;;;;4985364;28;20030;-59
2021/09/24 11:21:58;;;;;;;;;;;;;;;;;;5042126;28;20034;-60
2021/09/24 11:24:32;;;;;;;9.97;6.27;;;;;;;;;;4988776;28;19914;-59
2021/09/24 11:27:06;;;;;;;10.27;7.03;;;;;;;;;;4994532;28;20857;-60
2021/09/24 11:29:35;;;;;;;12.52;6.75;;;;;;;;;;5003232;28;20035;-60
2021/09/24 11:32:01;;;;;;;8.68;6.07;;;;;;;;;;4987787;28;20034;-60
2021/09/24 11:35:08;;;;;;;9.27;6.50;;;;;;;;;;4980658;28;20489;-60
2021/09/24 11:37:30;;;;;;;9.15;5.85;;;;;;;;;;4992079;28;20034;-60
2021/09/24 11:40:22;;;;;;;8.65;6.75;;;;;;;;;;5041272;28;20505;-60
2021/09/24 11:42:53;;;;;;;8.30;6.50;;;;;;;;;;4981447;28;20050;-60
2021/09/24 11:45:23;;;;;;;10.77;6.10;;;;;;;;;;4988372;28;20035;-60
2021/09/24 11:48:02;;;;;;;11.00;6.05;;;;;;;;;;5009228;28;20549;-60
2021/09/24 11:50:30;;;;;;;8.32;6.43;;;;;;;;;;5044896;28;20045;-60
2021/09/24 11:52:58;;;;;;;9.55;6.32;;;;;;;;;;4985605;28;20065;-60
2021/09/24 11:55:23;;;;;;;7.00;5.72;;;;;;;;;;4985276;28;20043;-60
2021/09/24 11:58:12;;;;;;;7.43;5.28;;;;;;;;;;4994662;28;20453;-60
2021/09/24 12:00:42;;;;;;;7.97;6.30;;;;;;;;;;4984715;28;20045;-60
2021/09/24 12:03:27;;;;;;;8.80;5.90;;;;;;;;;;4983599;28;20108;-60
2021/09/24 12:06:02;;;;;;;7.68;5.43;;;;;;;;;;5041424;28;20563;-60
2021/09/24 12:08:30;;;;;;;6.85;5.50;;;;;;;;;;4978367;28;20034;-60
2021/09/24 12:11:00;;;;;;;6.88;5.05;;;;;;;;;;4990906;28;20027;-60
2021/09/24 12:13:44;;;;;;;6.13;5.18;;;;;;;;;;4983155;28;20045;-61
2021/09/24 12:16:33;;;;;;;7.25;5.30;;;;;;;;;;5038552;28;20077;-60
2021/09/24 12:18:58;;;;;;;5.82;5.22;;;;;;;;;;4988782;28;20088;-60
2021/09/24 12:21:50;;;;;;;6.90;5.05;;;;;;;;;;4983384;28;20046;-60
2021/09/24 12:24:23;;;;;;;6.13;5.10;;;;;;;;;;4997052;28;20026;-60
2021/09/24 12:27:10;;;;;;;7.53;5.15;;;;;;;;;;4978449;28;20137;-59
2021/09/24 12:29:39;;;;;;;5.57;5.05;;;;;;;;;;4989921;28;20039;-59
2021/09/24 12:32:16;;;;;;;7.07;5.68;;;;;;;;;;4986755;28;20177;-59
2021/09/24 12:34:45;;;;;;;8.35;6.13;;;;;;;;;;4992068;28;20039;-59
2021/09/24 12:37:13;;;;;;;8.32;5.53;;;;;;;;;;4989952;28;20062;-59
2021/09/24 12:39:41;;;;;;;6.65;5.03;;;;;;;;;;4994370;28;20123;-59
2021/09/24 12:42:09;;;;;;;7.97;5.30;;;;;;;;;;4986897;28;20088;-59
2021/09/24 12:44:46;;;;;;;7.72;4.85;;;;;;;;;;4980723;28;20677;-59
2021/09/24 12:47:22;;;;;;;6.53;5.22;;;;;;;;;;5041481;28;20046;-60
2021/09/24 12:49:49;;;;;;;11.23;7.05;;;;;;;;;;5047308;28;20030;-60
2021/09/24 12:52:16;;;;;;;8.57;5.80;;;;;;;;;;4979743;28;20026;-59
2021/09/24 12:54:42;;;;;;;6.80;5.07;;;;;;;;;;4973924;28;20341;-58
2021/09/24 12:57:08;;;;;;;6.78;5.25;;;;;;;;;;4990747;28;20042;-59
2021/09/24 12:59:34;;;;;;;5.95;4.97;;;;;;;;;;4981468;28;20018;-61
2021/09/24 13:02:02;;;;;;;7.60;5.40;;;;;;;;;;4991918;28;20018;-62
2021/09/24 13:04:29;;;;;;;6.93;5.15;;;;;;;;;;4998734;28;20046;-59
2021/09/24 13:06:54;;;;;;;10.48;5.45;;;;;;;;;;4997405;28;20453;-59
2021/09/24 13:09:20;;;;;;;7.97;5.15;;;;;;;;;;4993234;28;20045;-59
2021/09/24 13:11:47;;;;;;;9.52;5.28;;;;;;;;;;5013099;28;20026;-62
2021/09/24 13:14:13;;;;;;;8.57;4.90;;;;;;;;;;5048515;28;20034;-60
2021/09/24 13:16:39;;;;;;;8.30;5.10;;;;;;;;;;4991110;28;20032;-61
2021/09/24 13:19:04;;;;;;;6.63;5.00;;;;;;;;;;4987261;28;20041;-61
2021/09/24 13:21:36;;;;;;;7.50;4.82;;;;;;;;;;4984740;28;20137;-62
2021/09/24 13:24:02;;;;;;;6.65;5.00;;;;;;;;;;5002114;28;20556;-61
2021/09/24 13:26:28;;;;;;;5.55;4.78;;;;;;;;;;5002681;28;20350;-61
2021/09/24 13:28:53;;;;;;;7.22;4.78;;;;;;;;;;5001146;28;20031;-61
2021/09/24 13:31:20;;;;;;;5.10;4.40;;;;;;;;;;4999876;28;20053;-61
2021/09/24 13:33:47;;;;;;;6.10;4.60;;;;;;;;;;4993020;28;20016;-64
2021/09/24 13:36:13;;;;;;;5.28;4.55;;;;;;;;;;4997431;28;20751;-62
2021/09/24 13:38:38;;;;;;;7.05;4.55;;;;;;;;;;5003547;28;20033;-61
2021/09/24 13:41:04;;;;;;;5.75;4.70;;;;;;;;;;4999316;28;20038;-61
2021/09/24 13:43:30;;;;;;;7.53;4.70;;;;;;;;;;4989478;28;20030;-62
2021/09/24 13:45:55;;;;;;;5.88;4.43;;;;;;;;;;4993430;28;20030;-59
2021/09/24 13:48:21;;;;;;;8.98;4.28;;;;;;;;;;5011372;28;20022;-57
2021/09/24 13:50:47;;;;;;;6.07;4.95;;;;;;;;;;5048666;28;20033;-60
2021/09/24 13:53:15;;;;;;;6.25;4.72;;;;;;;;;;4984114;28;20039;-59
2021/09/24 13:55:40;;;;;;;6.40;4.75;;;;;;;;;;4991654;28;20046;-58
2021/09/24 13:58:06;;;;;;;7.90;4.80;;;;;;;;;;4997879;28;20032;-58
2021/09/24 14:00:32;;;;;;;7.38;4.05;;;;;;;;;;4999597;28;20038;-58
2021/09/24 14:02:58;;;;;;;6.63;4.07;;;;;;;;;;5052279;28;20123;-59
2021/09/24 14:05:23;;;;;;;5.88;4.35;;;;;;;;;;5051646;28;20023;-58
2021/09/24 14:07:49;;;;;;;5.32;4.68;;;;;;;;;;4990387;28;20054;-58
2021/09/24 14:10:16;;;;;;;8.48;5.00;;;;;;;;;;4986671;28;20027;-59
2021/09/24 14:12:42;;;;;;;6.72;4.50;;;;;;;;;;4991964;28;20037;-58
2021/09/24 14:15:10;;;;;;;6.55;4.50;;;;;;;;;;4993691;28;20038;-59
2021/09/24 14:17:36;;;;;;;5.72;4.20;;;;;;;;;;4989142;28;20026;-58
2021/09/24 14:20:02;;;;;;;5.35;4.72;;;;;;;;;;4992006;28;20359;-58
2021/09/24 14:22:28;;;;;;;5.72;4.82;;;;;;;;;;4981968;28;20026;-59
2021/09/24 14:24:53;;;;;;;5.43;3.97;;;;;;;;;;5002336;28;20073;-58
2021/09/24 14:27:19;;;;;;;5.85;4.80;;;;;;;;;;5003950;28;20443;-59
2021/09/24 14:29:44;;;;;;;10.68;5.00;;;;;;;;;;4993529;28;20091;-59
2021/09/24 14:32:10;;;;;;;8.57;4.25;;;;;;;;;;5012116;28;20035;-59
2021/09/24 14:34:36;;;;;;;6.40;4.90;;;;;;;;;;4980050;28;20171;-59